createdAt,value
2018-03-25T00:00:31.158Z,68.9
2018-03-25T00:01:11.654Z,68.9
2018-03-25T00:01:52.141Z,68.81
2018-03-25T00:02:32.667Z,69.48
2018-03-25T00:03:13.138Z,69.1
2018-03-25T00:03:53.632Z,69.67
2018-03-25T00:04:34.080Z,69.1
2018-03-25T00:05:14.620Z,69.48
2018-03-25T00:05:55.141Z,69.1
2018-03-25T00:06:35.598Z,69.76
2018-03-25T00:07:16.079Z,69.76
2018-03-25T00:07:56.541Z,69.82
2018-03-25T00:08:37.030Z,69.48
2018-03-25T00:09:17.526Z,69.38
2018-03-25T00:09:57.991Z,69.38
2018-03-25T00:10:38.594Z,69.38
2018-03-25T00:11:19.053Z,69.48
2018-03-25T00:11:59.614Z,69.48
2018-03-25T00:12:40.068Z,69.38
2018-03-25T00:13:20.559Z,69.95
2018-03-25T00:14:01.063Z,69.76
2018-03-25T00:14:41.536Z,69.67
2018-03-25T00:15:21.998Z,69.76
2018-03-25T00:16:02.490Z,69.57
2018-03-25T00:16:42.951Z,69.1
2018-03-25T00:17:23.446Z,69.85
2018-03-25T00:18:03.961Z,69.95
2018-03-25T00:18:44.421Z,69.38
2018-03-25T00:19:24.990Z,69.95
2018-03-25T00:20:05.455Z,69.95
2018-03-25T00:20:45.962Z,69.95
2018-03-25T00:21:26.475Z,69.95
2018-03-25T00:22:07.000Z,69.76
2018-03-25T00:22:47.460Z,70.14
2018-03-25T00:23:27.943Z,69.73
2018-03-25T00:24:08.437Z,69.29
2018-03-25T00:24:48.914Z,69.85
2018-03-25T00:25:29.405Z,69.85
2018-03-25T00:26:09.911Z,69.76
2018-03-25T00:26:50.446Z,69.38
2018-03-25T00:27:30.884Z,69.67
2018-03-25T00:28:11.428Z,69.48
2018-03-25T00:28:51.881Z,69.76
2018-03-25T00:29:32.421Z,70.14
2018-03-25T00:30:12.882Z,70.14
2018-03-25T00:30:53.347Z,69.76
2018-03-25T00:31:33.846Z,69.57
2018-03-25T00:32:14.351Z,69.67
2018-03-25T00:32:54.868Z,69.67
2018-03-25T00:33:35.362Z,69.76
2018-03-25T00:34:15.873Z,69.76
2018-03-25T00:34:56.353Z,68.71
2018-03-25T00:35:36.856Z,69.35
2018-03-25T00:36:17.344Z,69.67
2018-03-25T00:36:57.867Z,69.95
2018-03-25T00:37:38.384Z,69.76
2018-03-25T00:38:18.908Z,69.57
2018-03-25T00:38:59.431Z,69.67
2018-03-25T00:39:39.943Z,69.29
2018-03-25T00:40:20.430Z,69.48
2018-03-25T00:41:00.909Z,69.29
2018-03-25T00:41:41.437Z,69.57
2018-03-25T00:42:21.985Z,69.57
2018-03-25T00:43:02.410Z,69.82
2018-03-25T00:43:42.892Z,69.25
2018-03-25T00:44:23.368Z,69.06
2018-03-25T00:45:03.840Z,69.67
2018-03-25T00:45:44.322Z,69.92
2018-03-25T00:46:24.812Z,69.35
2018-03-25T00:47:05.362Z,70.1
2018-03-25T00:47:45.848Z,69.82
2018-03-25T00:48:26.321Z,70.39
2018-03-25T00:49:06.832Z,70.01
2018-03-25T00:49:47.315Z,69.82
2018-03-25T00:50:27.883Z,70.3
2018-03-25T00:51:08.367Z,70.1
2018-03-25T00:51:48.870Z,70.3
2018-03-25T00:52:29.372Z,70.2
2018-03-25T00:53:09.873Z,70.3
2018-03-25T00:53:50.364Z,69.82
2018-03-25T00:54:30.806Z,70.39
2018-03-25T00:55:11.314Z,70.3
2018-03-25T00:55:51.787Z,70.39
2018-03-25T00:56:32.285Z,70.3
2018-03-25T00:57:12.881Z,70.01
2018-03-25T00:57:53.424Z,70.77
2018-03-25T00:58:33.911Z,70.58
2018-03-25T00:59:14.479Z,70.68
2018-03-25T00:59:54.995Z,70.49
2018-03-25T01:00:35.477Z,70.3
2018-03-25T01:01:15.986Z,70.3
2018-03-25T01:01:56.524Z,70.1
2018-03-25T01:02:37.026Z,70.77
2018-03-25T01:03:17.521Z,70.49
2018-03-25T01:03:57.969Z,70.77
2018-03-25T01:04:38.525Z,70.58
2018-03-25T01:05:18.964Z,70.68
2018-03-25T01:05:59.479Z,70.77
2018-03-25T01:06:39.977Z,70.49
2018-03-25T01:07:20.545Z,70.1
2018-03-25T01:08:00.974Z,70.39
2018-03-25T01:08:41.476Z,70.36
2018-03-25T01:09:22.014Z,71.15
2018-03-25T01:10:02.518Z,70.74
2018-03-25T01:10:42.977Z,71.22
2018-03-25T01:11:23.471Z,71.5
2018-03-25T01:12:03.941Z,71.72
2018-03-25T01:12:44.412Z,71.82
2018-03-25T01:13:24.941Z,71.15
2018-03-25T01:14:05.423Z,71.15
2018-03-25T01:14:45.928Z,71.53
2018-03-25T01:15:26.402Z,71.06
2018-03-25T01:16:06.908Z,71.25
2018-03-25T01:16:47.447Z,71.72
2018-03-25T01:17:27.945Z,71.82
2018-03-25T01:18:08.403Z,71.82
2018-03-25T01:18:48.882Z,71.53
2018-03-25T01:19:29.384Z,71.72
2018-03-25T01:20:09.842Z,71.91
2018-03-25T01:20:50.348Z,71.34
2018-03-25T01:21:30.832Z,71.91
2018-03-25T01:22:11.353Z,72.01
2018-03-25T01:22:51.841Z,71.25
2018-03-25T01:23:32.340Z,71.91
2018-03-25T01:24:12.821Z,71.72
2018-03-25T01:24:53.338Z,71.72
2018-03-25T01:25:33.853Z,71.69
2018-03-25T01:26:14.390Z,71.88
2018-03-25T01:26:54.867Z,72.55
2018-03-25T01:27:35.353Z,72.55
2018-03-25T01:28:15.854Z,72.35
2018-03-25T01:28:56.357Z,72.16
2018-03-25T01:29:36.871Z,72.45
2018-03-25T01:30:19.952Z,72.45
2018-03-25T01:31:00.414Z,72.35
2018-03-25T01:31:40.908Z,73.11
2018-03-25T01:32:21.393Z,72.64
2018-03-25T01:33:01.949Z,73.02
2018-03-25T01:33:42.402Z,72.64
2018-03-25T01:34:22.985Z,72.16
2018-03-25T01:35:03.499Z,72.55
2018-03-25T01:35:43.981Z,72.74
2018-03-25T01:36:24.454Z,73.02
2018-03-25T01:37:04.981Z,73.21
2018-03-25T01:37:45.500Z,72.35
2018-03-25T01:38:25.936Z,73.02
2018-03-25T01:39:06.501Z,73.02
2018-03-25T01:39:46.963Z,73.02
2018-03-25T01:40:27.462Z,73.02
2018-03-25T01:41:07.971Z,72.74
2018-03-25T01:41:48.430Z,72.45
2018-03-25T01:42:28.972Z,72.83
2018-03-25T01:43:09.466Z,73.21
2018-03-25T01:43:49.897Z,72.74
2018-03-25T01:44:30.388Z,72.92
2018-03-25T01:45:10.894Z,72.83
2018-03-25T01:45:51.384Z,72.92
2018-03-25T01:46:31.829Z,72.74
2018-03-25T01:47:12.286Z,72.83
2018-03-25T01:47:52.798Z,72.55
2018-03-25T01:48:33.304Z,72.92
2018-03-25T01:49:13.833Z,72.74
2018-03-25T01:49:54.306Z,72.49
2018-03-25T01:50:34.787Z,72.07
2018-03-25T01:51:15.322Z,72.26
2018-03-25T01:51:55.783Z,72.74
2018-03-25T01:52:36.259Z,72.83
2018-03-25T01:53:16.760Z,73.02
2018-03-25T01:53:57.255Z,72.92
2018-03-25T01:54:37.732Z,72.45
2018-03-25T01:55:18.223Z,73.59
2018-03-25T01:55:58.697Z,73.21
2018-03-25T01:56:39.198Z,73.21
2018-03-25T01:57:19.651Z,73.59
2018-03-25T01:58:00.158Z,72.83
2018-03-25T01:58:40.667Z,73.49
2018-03-25T01:59:21.201Z,73.49
2018-03-25T02:00:01.667Z,73.49
2018-03-25T02:00:42.218Z,72.74
2018-03-25T02:01:22.631Z,72.74
2018-03-25T02:02:03.140Z,73.69
2018-03-25T02:02:43.639Z,73.55
2018-03-25T02:03:24.124Z,73.36
2018-03-25T02:04:04.669Z,74.03
2018-03-25T02:04:45.142Z,74.03
2018-03-25T02:05:25.621Z,74.41
2018-03-25T02:06:06.092Z,74.31
2018-03-25T02:06:46.605Z,74.6
2018-03-25T02:07:27.132Z,74.41
2018-03-25T02:08:07.610Z,74.51
2018-03-25T02:08:48.055Z,74.69
2018-03-25T02:09:28.574Z,74.98
2018-03-25T02:10:09.040Z,75.17
2018-03-25T02:10:49.522Z,74.6
2018-03-25T02:11:30.024Z,74.51
2018-03-25T02:12:10.495Z,74.79
2018-03-25T02:12:50.954Z,74.6
2018-03-25T02:13:31.451Z,74.31
2018-03-25T02:14:12.011Z,74.51
2018-03-25T02:14:52.494Z,74.51
2018-03-25T02:15:32.980Z,74.6
2018-03-25T02:16:13.441Z,74.41
2018-03-25T02:16:53.944Z,74.31
2018-03-25T02:17:34.411Z,74.41
2018-03-25T02:18:14.890Z,74.41
2018-03-25T02:18:55.370Z,74.51
2018-03-25T02:19:35.795Z,74.79
2018-03-25T02:20:16.269Z,74.31
2018-03-25T02:20:56.785Z,74.6
2018-03-25T02:21:37.287Z,74.79
2018-03-25T02:22:17.827Z,75.07
2018-03-25T02:22:58.366Z,75.45
2018-03-25T02:23:38.879Z,74.98
2018-03-25T02:24:19.317Z,74.88
2018-03-25T02:24:59.826Z,75.36
2018-03-25T02:25:40.316Z,75.17
2018-03-25T02:26:20.810Z,75.55
2018-03-25T02:27:01.277Z,75.64
2018-03-25T02:27:41.736Z,75.74
2018-03-25T02:28:22.240Z,75.45
2018-03-25T02:29:02.746Z,75.74
2018-03-25T02:29:43.261Z,75.55
2018-03-25T02:30:23.709Z,75.45
2018-03-25T02:31:04.254Z,75.36
2018-03-25T02:31:44.712Z,75.36
2018-03-25T02:32:25.229Z,75.26
2018-03-25T02:33:05.676Z,75.55
2018-03-25T02:33:46.196Z,75.93
2018-03-25T02:34:26.674Z,76.03
2018-03-25T02:35:07.146Z,75.55
2018-03-25T02:35:47.615Z,75.55
2018-03-25T02:36:28.095Z,75.55
2018-03-25T02:37:08.542Z,75.55
2018-03-25T02:37:49.050Z,75.36
2018-03-25T02:38:29.548Z,75.45
2018-03-25T02:39:10.058Z,75.36
2018-03-25T02:39:50.556Z,75.64
2018-03-25T02:40:31.046Z,75.07
2018-03-25T02:41:11.594Z,75.36
2018-03-25T02:41:52.018Z,74.98
2018-03-25T02:42:32.516Z,75.07
2018-03-25T02:43:12.982Z,75.07
2018-03-25T02:43:53.474Z,75.64
2018-03-25T02:44:33.984Z,75.64
2018-03-25T02:45:14.473Z,75.55
2018-03-25T02:45:54.986Z,75.17
2018-03-25T02:46:35.543Z,75.51
2018-03-25T02:47:16.045Z,76.03
2018-03-25T02:47:56.529Z,75.36
2018-03-25T02:48:37.060Z,75.55
2018-03-25T02:49:17.563Z,75.55
2018-03-25T02:49:58.063Z,75.07
2018-03-25T02:50:38.507Z,74.98
2018-03-25T02:51:18.985Z,75.17
2018-03-25T02:51:59.619Z,75.32
2018-03-25T02:52:40.156Z,75.51
2018-03-25T02:53:20.613Z,75.45
2018-03-25T02:54:01.082Z,75.6
2018-03-25T02:54:41.620Z,75.32
2018-03-25T02:55:22.075Z,75.42
2018-03-25T02:56:02.536Z,75.89
2018-03-25T02:56:43.008Z,76.18
2018-03-25T02:57:23.559Z,76.37
2018-03-25T02:58:04.037Z,76.08
2018-03-25T02:58:44.584Z,76.46
2018-03-25T02:59:25.037Z,76.46
2018-03-25T03:00:05.497Z,76.37
2018-03-25T03:00:46.023Z,76.46
2018-03-25T03:01:26.486Z,76.46
2018-03-25T03:02:06.969Z,76.37
2018-03-25T03:02:47.473Z,76.37
2018-03-25T03:03:27.972Z,76.18
2018-03-25T03:04:08.468Z,76.84
2018-03-25T03:04:48.940Z,77.03
2018-03-25T03:05:29.473Z,76.56
2018-03-25T03:06:10.061Z,76.27
2018-03-25T03:06:50.429Z,76.56
2018-03-25T03:07:30.933Z,76.27
2018-03-25T03:08:11.487Z,76.4
2018-03-25T03:08:52.010Z,76.03
2018-03-25T03:09:32.514Z,75.6
2018-03-25T03:10:12.968Z,75.7
2018-03-25T03:10:53.460Z,75.7
2018-03-25T03:11:33.975Z,76.18
2018-03-25T03:12:14.474Z,76.37
2018-03-25T03:12:54.887Z,76.46
2018-03-25T03:13:35.440Z,76.46
2018-03-25T03:14:15.882Z,76.56
2018-03-25T03:14:56.406Z,76.46
2018-03-25T03:15:36.891Z,77.03
2018-03-25T03:16:17.361Z,77.12
2018-03-25T03:16:57.896Z,77.22
2018-03-25T03:17:38.361Z,76.84
2018-03-25T03:18:18.823Z,76.84
2018-03-25T03:18:59.348Z,76.84
2018-03-25T03:19:39.839Z,76.84
2018-03-25T03:20:20.312Z,76.93
2018-03-25T03:21:00.797Z,76.56
2018-03-25T03:21:41.281Z,76.46
2018-03-25T03:22:21.782Z,76.27
2018-03-25T03:23:02.275Z,76.65
2018-03-25T03:23:42.728Z,76.18
2018-03-25T03:24:23.221Z,76.37
2018-03-25T03:25:03.700Z,76.27
2018-03-25T03:25:44.214Z,76.18
2018-03-25T03:26:24.696Z,75.7
2018-03-25T03:27:05.205Z,75.99
2018-03-25T03:27:45.676Z,75.89
2018-03-25T03:28:26.111Z,75.93
2018-03-25T03:29:06.616Z,76.08
2018-03-25T03:29:47.081Z,75.32
2018-03-25T03:30:27.625Z,75.7
2018-03-25T03:31:08.100Z,75.64
2018-03-25T03:31:48.611Z,75.26
2018-03-25T03:32:29.162Z,75.36
2018-03-25T03:33:09.664Z,75.45
2018-03-25T03:33:50.112Z,75.45
2018-03-25T03:34:30.630Z,75.36
2018-03-25T03:35:11.086Z,75.32
2018-03-25T03:35:51.586Z,74.98
2018-03-25T03:36:32.042Z,75.26
2018-03-25T03:37:12.566Z,75.26
2018-03-25T03:37:53.027Z,75.17
2018-03-25T03:38:33.467Z,75.26
2018-03-25T03:39:14.003Z,74.98
2018-03-25T03:39:54.484Z,74.88
2018-03-25T03:40:34.994Z,74.79
2018-03-25T03:41:15.440Z,74.69
2018-03-25T03:41:55.970Z,75.07
2018-03-25T03:42:36.443Z,75.26
2018-03-25T03:43:16.895Z,75.17
2018-03-25T03:43:57.399Z,74.88
2018-03-25T03:44:37.922Z,75.26
2018-03-25T03:45:18.452Z,75.07
2018-03-25T03:45:58.948Z,75.17
2018-03-25T03:46:39.431Z,75.32
2018-03-25T03:47:19.884Z,75.51
2018-03-25T03:48:00.399Z,75.7
2018-03-25T03:48:40.884Z,76.37
2018-03-25T03:49:21.344Z,76.18
2018-03-25T03:50:01.871Z,76.37
2018-03-25T03:50:42.311Z,76.84
2018-03-25T03:51:22.797Z,77.03
2018-03-25T03:52:03.300Z,77.22
2018-03-25T03:52:43.817Z,77.41
2018-03-25T03:53:24.302Z,77.51
2018-03-25T03:54:04.767Z,77.22
2018-03-25T03:54:45.270Z,77.31
2018-03-25T03:55:25.696Z,77.12
2018-03-25T03:56:06.209Z,77.7
2018-03-25T03:56:46.682Z,77.7
2018-03-25T03:57:27.206Z,77.6
2018-03-25T03:58:07.689Z,77.98
2018-03-25T03:58:48.169Z,77.79
2018-03-25T03:59:28.652Z,77.66
2018-03-25T04:00:09.159Z,77.89
2018-03-25T04:00:49.633Z,77.6
2018-03-25T04:01:30.093Z,77.98
2018-03-25T04:02:10.606Z,77.75
2018-03-25T04:02:51.069Z,77.94
2018-03-25T04:03:31.538Z,77.47
2018-03-25T04:04:11.974Z,77.66
2018-03-25T04:04:52.515Z,77.79
2018-03-25T04:05:32.958Z,77.89
2018-03-25T04:06:13.496Z,77.09
2018-03-25T04:06:53.967Z,77.12
2018-03-25T04:07:34.434Z,76.61
2018-03-25T04:08:14.938Z,77.09
2018-03-25T04:08:55.436Z,77.47
2018-03-25T04:09:35.911Z,77.09
2018-03-25T04:10:16.420Z,77.28
2018-03-25T04:10:56.925Z,76.99
2018-03-25T04:11:37.411Z,76.75
2018-03-25T04:12:17.886Z,76.32
2018-03-25T04:12:58.363Z,76.9
2018-03-25T04:13:38.855Z,76.71
2018-03-25T04:14:19.326Z,77.09
2018-03-25T04:14:59.785Z,77.09
2018-03-25T04:15:40.304Z,77.47
2018-03-25T04:16:20.748Z,77.37
2018-03-25T04:17:01.237Z,76.9
2018-03-25T04:17:41.763Z,77.56
2018-03-25T04:18:22.240Z,77.75
2018-03-25T04:19:02.711Z,77.56
2018-03-25T04:19:43.221Z,78.03
2018-03-25T04:20:23.650Z,78.32
2018-03-25T04:21:04.180Z,78.7
2018-03-25T04:21:44.663Z,78.42
2018-03-25T04:22:25.126Z,78.32
2018-03-25T04:23:05.657Z,78.51
2018-03-25T04:23:46.139Z,78.61
2018-03-25T04:24:26.630Z,78.8
2018-03-25T04:25:07.093Z,78.32
2018-03-25T04:25:47.630Z,78.51
2018-03-25T04:26:28.110Z,78.51
2018-03-25T04:27:08.596Z,78.51
2018-03-25T04:27:49.076Z,78.7
2018-03-25T04:28:29.551Z,78.51
2018-03-25T04:29:10.093Z,78.51
2018-03-25T04:29:50.568Z,78.51
2018-03-25T04:30:31.047Z,78.61
2018-03-25T04:31:11.557Z,78.7
2018-03-25T04:31:52.010Z,78.03
2018-03-25T04:32:32.486Z,78.03
2018-03-25T04:33:12.982Z,78.32
2018-03-25T04:33:53.518Z,78.38
2018-03-25T04:34:34.003Z,78.75
2018-03-25T04:35:14.547Z,78.95
2018-03-25T04:35:55.017Z,78.66
2018-03-25T04:36:35.494Z,79.23
2018-03-25T04:37:15.990Z,79.52
2018-03-25T04:37:56.480Z,79.27
2018-03-25T04:38:36.970Z,78.42
2018-03-25T04:39:17.442Z,79.04
2018-03-25T04:39:57.918Z,78.56
2018-03-25T04:40:38.361Z,79.33
2018-03-25T04:41:18.865Z,79.36
2018-03-25T04:41:59.355Z,79.52
2018-03-25T04:42:39.842Z,79.42
2018-03-25T04:43:20.388Z,79.23
2018-03-25T04:44:00.815Z,79.52
2018-03-25T04:44:41.333Z,79.23
2018-03-25T04:45:21.790Z,79.14
2018-03-25T04:46:02.287Z,79.33
2018-03-25T04:46:42.752Z,79.52
2018-03-25T04:47:23.286Z,79.8
2018-03-25T04:48:03.718Z,79.9
2018-03-25T04:48:44.211Z,79.99
2018-03-25T04:49:24.682Z,79.8
2018-03-25T04:50:05.199Z,79.36
2018-03-25T04:50:45.678Z,79.61
2018-03-25T04:51:26.151Z,79.52
2018-03-25T04:52:06.636Z,79.23
2018-03-25T04:52:47.092Z,79.42
2018-03-25T04:53:27.632Z,79.8
2018-03-25T04:54:08.086Z,79.8
2018-03-25T04:54:48.595Z,79.8
2018-03-25T04:55:29.101Z,79.55
2018-03-25T04:56:09.546Z,79.8
2018-03-25T04:56:50.053Z,79.23
2018-03-25T04:57:30.558Z,78.89
2018-03-25T04:58:11.023Z,79.08
2018-03-25T04:58:51.542Z,78.99
2018-03-25T04:59:32.014Z,78.7
2018-03-25T05:00:12.526Z,79.17
2018-03-25T05:00:52.998Z,79.08
2018-03-25T05:01:33.523Z,78.99
2018-03-25T05:02:14.023Z,78.42
2018-03-25T05:02:54.473Z,79.46
2018-03-25T05:03:34.987Z,79.46
2018-03-25T05:04:15.484Z,79.61
2018-03-25T05:04:55.932Z,79.65
2018-03-25T05:05:36.491Z,80.03
2018-03-25T05:06:16.924Z,79.9
2018-03-25T05:06:57.440Z,79.99
2018-03-25T05:07:37.907Z,79.71
2018-03-25T05:08:18.413Z,79.8
2018-03-25T05:08:58.908Z,79.99
2018-03-25T05:09:39.389Z,79.99
2018-03-25T05:10:19.860Z,79.71
2018-03-25T05:11:00.321Z,79.99
2018-03-25T05:11:40.810Z,79.74
2018-03-25T05:12:21.348Z,79.9
2018-03-25T05:13:01.810Z,79.9
2018-03-25T05:13:42.320Z,79.99
2018-03-25T05:14:22.847Z,79.8
2018-03-25T05:15:03.291Z,79.99
2018-03-25T05:15:43.792Z,79.52
2018-03-25T05:16:24.242Z,80.18
2018-03-25T05:17:04.783Z,80.46
2018-03-25T05:17:45.216Z,79.99
2018-03-25T05:18:25.675Z,80.27
2018-03-25T05:19:06.146Z,80.56
2018-03-25T05:19:46.605Z,80.75
2018-03-25T05:20:27.101Z,80.65
2018-03-25T05:21:07.576Z,80.46
2018-03-25T05:21:48.111Z,80.65
2018-03-25T05:22:28.550Z,81.04
2018-03-25T05:23:09.036Z,80.75
2018-03-25T05:23:49.521Z,80.08
2018-03-25T05:24:30.038Z,80.18
2018-03-25T05:25:10.488Z,80.27
2018-03-25T05:25:50.992Z,80.65
2018-03-25T05:26:31.667Z,79.8
2018-03-25T05:27:12.164Z,79.8
2018-03-25T05:27:52.652Z,79.84
2018-03-25T05:28:33.072Z,79.84
2018-03-25T05:29:13.607Z,80.03
2018-03-25T05:29:54.052Z,79.46
2018-03-25T05:30:34.565Z,79.17
2018-03-25T05:31:15.068Z,79.17
2018-03-25T05:31:55.507Z,79.27
2018-03-25T05:32:36.066Z,79.17
2018-03-25T05:33:16.525Z,79.27
2018-03-25T05:33:56.984Z,79.23
2018-03-25T05:34:37.487Z,79.65
2018-03-25T05:35:18.000Z,79.55
2018-03-25T05:35:58.544Z,78.8
2018-03-25T05:36:39.007Z,78.8
2018-03-25T05:37:19.509Z,78.7
2018-03-25T05:37:59.969Z,78.7
2018-03-25T05:38:40.484Z,77.84
2018-03-25T05:39:21.001Z,77.94
2018-03-25T05:40:01.439Z,77.47
2018-03-25T05:40:41.922Z,77.56
2018-03-25T05:41:22.430Z,77.37
2018-03-25T05:42:02.955Z,77.47
2018-03-25T05:42:43.478Z,78.03
2018-03-25T05:43:23.958Z,77.75
2018-03-25T05:44:04.421Z,77.84
2018-03-25T05:44:44.885Z,78.32
2018-03-25T05:45:25.423Z,78.42
2018-03-25T05:46:05.931Z,78.8
2018-03-25T05:46:46.454Z,78.7
2018-03-25T05:47:26.873Z,78.61
2018-03-25T05:48:07.385Z,78.61
2018-03-25T05:48:47.910Z,79.08
2018-03-25T05:49:28.405Z,78.42
2018-03-25T05:50:08.893Z,78.8
2018-03-25T05:50:49.422Z,78.61
2018-03-25T05:51:29.931Z,78.42
2018-03-25T05:52:10.405Z,78.13
2018-03-25T05:52:50.919Z,77.94
2018-03-25T05:53:31.420Z,78.03
2018-03-25T05:54:11.885Z,78.13
2018-03-25T05:54:52.362Z,78.23
2018-03-25T05:55:32.854Z,77.75
2018-03-25T05:56:13.345Z,78.03
2018-03-25T05:56:53.830Z,77.94
2018-03-25T05:57:34.365Z,77.75
2018-03-25T05:58:14.823Z,77.56
2018-03-25T05:58:55.321Z,77.84
2018-03-25T05:59:35.763Z,77.75
2018-03-25T06:00:16.322Z,78.13
2018-03-25T06:00:56.799Z,78.03
2018-03-25T06:01:37.249Z,78.32
2018-03-25T06:02:17.720Z,77.84
2018-03-25T06:02:58.215Z,77.51
2018-03-25T06:03:38.712Z,77.66
2018-03-25T06:04:19.181Z,77.6
2018-03-25T06:04:59.697Z,77.79
2018-03-25T06:05:40.196Z,77.41
2018-03-25T06:06:20.678Z,77.12
2018-03-25T06:07:01.180Z,77.41
2018-03-25T06:07:41.645Z,76.93
2018-03-25T06:08:22.108Z,76.08
2018-03-25T06:09:02.590Z,76.46
2018-03-25T06:09:43.079Z,76.46
2018-03-25T06:10:23.519Z,76.84
2018-03-25T06:11:04.030Z,76.84
2018-03-25T06:11:44.467Z,77.31
2018-03-25T06:12:24.952Z,76.65
2018-03-25T06:13:05.474Z,77.41
2018-03-25T06:13:45.995Z,77.12
2018-03-25T06:14:26.482Z,77.12
2018-03-25T06:15:06.955Z,76.65
2018-03-25T06:15:47.543Z,77.51
2018-03-25T06:16:27.935Z,77.51
2018-03-25T06:17:08.385Z,77.51
2018-03-25T06:17:48.931Z,77.79
2018-03-25T06:18:29.535Z,78.27
2018-03-25T06:19:09.975Z,77.79
2018-03-25T06:19:50.444Z,77.98
2018-03-25T06:20:30.999Z,77.89
2018-03-25T06:21:11.475Z,77.98
2018-03-25T06:21:51.952Z,77.89
2018-03-25T06:22:32.425Z,77.98
2018-03-25T06:23:12.898Z,78.08
2018-03-25T06:23:53.396Z,77.89
2018-03-25T06:24:33.909Z,77.89
2018-03-25T06:25:14.409Z,77.89
2018-03-25T06:25:54.948Z,78.64
2018-03-25T06:26:35.435Z,78.27
2018-03-25T06:27:15.908Z,78.64
2018-03-25T06:27:56.415Z,78.74
2018-03-25T06:28:36.929Z,77.79
2018-03-25T06:29:17.450Z,77.89
2018-03-25T06:29:57.968Z,78.08
2018-03-25T06:30:38.538Z,77.89
2018-03-25T06:31:18.929Z,77.79
2018-03-25T06:31:59.434Z,77.6
2018-03-25T06:32:39.950Z,78.08
2018-03-25T06:33:20.437Z,78.17
2018-03-25T06:34:00.909Z,77.79
2018-03-25T06:34:41.398Z,78.27
2018-03-25T06:35:21.939Z,78.17
2018-03-25T06:36:03.271Z,78.27
2018-03-25T06:36:43.764Z,77.98
2018-03-25T06:37:24.254Z,78.17
2018-03-25T06:38:04.813Z,77.51
2018-03-25T06:38:45.746Z,77.7
2018-03-25T06:39:26.276Z,77.79
2018-03-25T06:40:06.746Z,77.51
2018-03-25T06:40:47.219Z,77.31
2018-03-25T06:41:27.749Z,77.31
2018-03-25T06:42:08.201Z,77.7
2018-03-25T06:42:48.731Z,77.31
2018-03-25T06:43:29.150Z,77.51
2018-03-25T06:44:09.700Z,77.31
2018-03-25T06:44:50.184Z,77.31
2018-03-25T06:45:30.672Z,77.31
2018-03-25T06:46:11.175Z,77.03
2018-03-25T06:46:51.661Z,77.03
2018-03-25T06:47:32.103Z,77.41
2018-03-25T06:48:12.629Z,77.03
2018-03-25T06:48:53.086Z,77.51
2018-03-25T06:49:33.628Z,77.12
2018-03-25T06:50:14.139Z,77.03
2018-03-25T06:50:54.646Z,77.41
2018-03-25T06:51:35.079Z,77.26
2018-03-25T06:52:15.584Z,76.59
2018-03-25T06:52:56.051Z,76.21
2018-03-25T06:53:36.536Z,76.59
2018-03-25T06:54:17.053Z,76.5
2018-03-25T06:54:57.505Z,76.4
2018-03-25T06:55:38.016Z,76.12
2018-03-25T06:56:18.498Z,75.74
2018-03-25T06:56:58.994Z,75.74
2018-03-25T06:57:39.453Z,75.45
2018-03-25T06:58:19.960Z,75.36
2018-03-25T06:59:00.511Z,75.07
2018-03-25T06:59:40.919Z,75.36
2018-03-25T07:00:21.435Z,75.26
2018-03-25T07:01:01.982Z,75.17
2018-03-25T07:01:42.402Z,75.26
2018-03-25T07:02:22.898Z,75.36
2018-03-25T07:03:03.424Z,75.17
2018-03-25T07:03:43.893Z,75.36
2018-03-25T07:04:24.418Z,75.55
2018-03-25T07:05:04.903Z,75.07
2018-03-25T07:05:45.411Z,74.6
2018-03-25T07:06:25.892Z,74.22
2018-03-25T07:07:06.365Z,74.73
2018-03-25T07:07:46.815Z,73.97
2018-03-25T07:08:27.362Z,73.97
2018-03-25T07:09:07.844Z,74.07
2018-03-25T07:09:48.319Z,73.78
2018-03-25T07:10:28.811Z,73.49
2018-03-25T07:11:09.319Z,73.3
2018-03-25T07:11:49.801Z,73.4
2018-03-25T07:12:30.303Z,73.69
2018-03-25T07:13:10.848Z,73.59
2018-03-25T07:13:51.267Z,73.59
2018-03-25T07:14:31.840Z,73.4
2018-03-25T07:15:12.292Z,73.11
2018-03-25T07:15:52.762Z,73.4
2018-03-25T07:16:33.298Z,73.59
2018-03-25T07:17:13.745Z,73.11
2018-03-25T07:17:54.240Z,72.67
2018-03-25T07:18:34.749Z,72.2
2018-03-25T07:19:15.225Z,72.86
2018-03-25T07:19:55.698Z,72.45
2018-03-25T07:20:36.211Z,73.3
2018-03-25T07:21:16.680Z,72.77
2018-03-25T07:21:57.149Z,72.67
2018-03-25T07:22:37.705Z,72.83
2018-03-25T07:23:18.142Z,72.45
2018-03-25T07:23:58.633Z,72.92
2018-03-25T07:24:39.142Z,72.55
2018-03-25T07:25:19.618Z,72.92
2018-03-25T07:26:01.163Z,72.77
2018-03-25T07:26:41.862Z,72.55
2018-03-25T07:27:22.400Z,72.77
2018-03-25T07:28:02.853Z,72.58
2018-03-25T07:28:43.361Z,72.77
2018-03-25T07:29:23.862Z,73.06
2018-03-25T07:30:04.541Z,73.34
2018-03-25T07:30:45.076Z,72.11
2018-03-25T07:31:25.568Z,72.49
2018-03-25T07:32:06.019Z,72.3
2018-03-25T07:32:46.552Z,72.3
2018-03-25T07:33:27.011Z,72.39
2018-03-25T07:34:07.465Z,72.11
2018-03-25T07:34:48.019Z,71.91
2018-03-25T07:35:28.492Z,72.3
2018-03-25T07:36:08.993Z,72.3
2018-03-25T07:36:49.460Z,72.3
2018-03-25T07:37:29.923Z,72.3
2018-03-25T07:38:10.456Z,72.39
2018-03-25T07:38:50.943Z,72.58
2018-03-25T07:39:31.555Z,72.58
2018-03-25T07:40:11.959Z,72.11
2018-03-25T07:40:52.527Z,72.49
2018-03-25T07:41:33.004Z,72.67
2018-03-25T07:42:13.484Z,72.67
2018-03-25T07:42:53.943Z,72.11
2018-03-25T07:43:34.495Z,72.11
2018-03-25T07:44:15.669Z,72.3
2018-03-25T07:44:56.190Z,72.2
2018-03-25T07:45:36.719Z,72.49
2018-03-25T07:46:17.216Z,71.91
2018-03-25T07:46:57.849Z,72.11
2018-03-25T07:47:38.363Z,71.91
2018-03-25T07:48:19.101Z,72.01
2018-03-25T07:48:59.338Z,72.49
2018-03-25T07:49:39.881Z,72.2
2018-03-25T07:50:20.463Z,72.11
2018-03-25T07:51:00.932Z,72.01
2018-03-25T07:51:41.391Z,72.11
2018-03-25T07:52:21.907Z,72.01
2018-03-25T07:53:02.381Z,72.05
2018-03-25T07:53:42.858Z,71.67
2018-03-25T07:54:23.388Z,71.82
2018-03-25T07:55:03.907Z,71.86
2018-03-25T07:55:45.940Z,71.86
2018-03-25T07:56:26.983Z,71.47
2018-03-25T07:57:07.827Z,70.72
2018-03-25T07:57:47.915Z,71
2018-03-25T07:58:28.441Z,70.43
2018-03-25T07:59:09.108Z,69.95
2018-03-25T07:59:49.622Z,70.62
2018-03-25T08:00:31.263Z,70.24
2018-03-25T08:01:12.875Z,70.24
2018-03-25T08:01:53.615Z,70.24
2018-03-25T08:02:35.556Z,70.33
2018-03-25T08:03:18.043Z,70.33
2018-03-25T08:03:58.544Z,70.33
2018-03-25T08:04:39.377Z,70.14
2018-03-25T08:05:19.966Z,69.95
2018-03-25T08:06:00.536Z,71
2018-03-25T08:06:41.019Z,70.97
2018-03-25T08:07:21.484Z,71.63
2018-03-25T08:08:02.135Z,71.63
2018-03-25T08:08:42.657Z,72.01
2018-03-25T08:09:23.151Z,72.67
2018-03-25T08:10:03.677Z,73.34
2018-03-25T08:10:44.182Z,72.58
2018-03-25T08:11:24.650Z,72.39
2018-03-25T08:12:05.148Z,72.2
2018-03-25T08:12:45.660Z,72.39
2018-03-25T08:13:26.148Z,72.49
2018-03-25T08:14:06.586Z,72.39
2018-03-25T08:14:47.129Z,72.3
2018-03-25T08:15:27.622Z,72.11
2018-03-25T08:16:08.175Z,72.58
2018-03-25T08:16:48.584Z,72.96
2018-03-25T08:17:29.045Z,72.77
2018-03-25T08:18:09.564Z,72.96
2018-03-25T08:18:50.067Z,72.77
2018-03-25T08:19:30.542Z,72.49
2018-03-25T08:20:11.064Z,72.33
2018-03-25T08:20:51.539Z,71.38
2018-03-25T08:21:32.154Z,70.81
2018-03-25T08:22:12.540Z,71.09
2018-03-25T08:22:53.311Z,70.81
2018-03-25T08:23:33.885Z,70.62
2018-03-25T08:24:14.575Z,70.9
2018-03-25T08:24:55.079Z,71.19
2018-03-25T08:25:35.564Z,70.81
2018-03-25T08:26:15.990Z,70.52
2018-03-25T08:26:56.471Z,70.81
2018-03-25T08:27:36.942Z,70.62
2018-03-25T08:28:17.459Z,71
2018-03-25T08:28:58.035Z,71
2018-03-25T08:29:38.468Z,71.09
2018-03-25T08:30:21.290Z,71.25
2018-03-25T08:32:12.191Z,71.95
2018-03-25T08:32:52.702Z,72.52
2018-03-25T08:33:33.249Z,72.3
2018-03-25T08:34:13.732Z,72.39
2018-03-25T08:34:54.269Z,72.2
2018-03-25T08:35:35.057Z,72.3
2018-03-25T08:36:15.340Z,72.77
2018-03-25T08:36:56.182Z,72.77
2018-03-25T08:37:36.975Z,73.25
2018-03-25T08:38:16.948Z,73.44
2018-03-25T08:38:57.564Z,72.86
2018-03-25T08:39:38.115Z,72.58
2018-03-25T08:40:19.074Z,73
2018-03-25T08:40:59.316Z,72.58
2018-03-25T08:41:39.804Z,72.49
2018-03-25T08:42:20.590Z,72.52
2018-03-25T08:43:01.505Z,72.33
2018-03-25T08:43:42.014Z,72.14
2018-03-25T08:44:22.848Z,71.38
2018-03-25T08:45:03.261Z,70.62
2018-03-25T08:45:43.847Z,71.38